Time;durP1;ratioP1;P1;durP2;ratioP2;P2;SDS_P1;SDS_P2;PMS_P1;PMS_P2;Temp;Humidity;BMP_temperature;BMP_pressure;BME280_temperature;BME280_humidity;BME280_pressure;Samples;Min_cycle;Max_cycle;Signal;HPM_P1;HPM_P2
2023/04/12 00:02:26;;;;;;;4.65;1.63;;;12.80;99.90;;;;;;7390240;19;20178;-78
2023/04/12 00:04:54;;;;;;;2.30;1.33;;;12.80;99.90;;;;;;7390674;19;20146;-78
2023/04/12 00:07:23;;;;;;;2.80;1.10;;;12.70;99.90;;;;;;7391548;19;20681;-77
2023/04/12 00:09:50;;;;;;;6.60;1.37;;;12.70;99.90;;;;;;7391958;19;20467;-78
2023/04/12 00:12:18;;;;;;;3.42;1.20;;;12.70;99.90;;;;;;7392163;19;20173;-78
2023/04/12 00:14:45;;;;;;;5.55;1.33;;;12.60;99.90;;;;;;7388238;19;20150;-78
2023/04/12 00:17:11;;;;;;;5.30;1.48;;;12.70;99.90;;;;;;7392750;19;20174;-79
2023/04/12 00:19:40;;;;;;;3.95;1.75;;;12.70;99.90;;;;;;7393201;19;20661;-78
2023/04/12 00:22:10;;;;;;;2.67;1.50;;;12.60;99.90;;;;;;7392333;19;20595;-79
2023/04/12 00:24:39;;;;;;;2.80;1.40;;;12.60;99.90;;;;;;7391285;19;20602;-79
2023/04/12 00:27:05;;;;;;;2.38;1.08;;;12.60;99.90;;;;;;7393363;19;20158;-79
2023/04/12 00:29:31;;;;;;;4.77;1.40;;;12.60;99.90;;;;;;7395680;19;20174;-79
2023/04/12 00:32:00;;;;;;;3.50;1.25;;;12.50;99.90;;;;;;7392172;19;20145;-79
2023/04/12 00:34:27;;;;;;;2.47;1.52;;;12.30;99.90;;;;;;7393102;19;20142;-78
2023/04/12 00:36:53;;;;;;;4.07;1.20;;;12.20;99.90;;;;;;7390360;19;20163;-78
2023/04/12 00:39:19;;;;;;;3.83;1.40;;;12.40;99.90;;;;;;7392270;19;20150;-79
2023/04/12 00:41:44;;;;;;;3.53;1.75;;;12.30;99.90;;;;;;7389763;19;20154;-79
2023/04/12 00:44:10;;;;;;;3.05;1.30;;;12.20;99.90;;;;;;7393000;19;20266;-79
2023/04/12 00:46:37;;;;;;;4.43;1.35;;;12.20;99.90;;;;;;7392454;19;20483;-79
2023/04/12 00:49:03;;;;;;;5.53;1.35;;;12.00;99.90;;;;;;7393274;19;20149;-78
2023/04/12 00:51:32;;;;;;;3.53;1.40;;;12.00;99.90;;;;;;7391428;19;20143;-79
2023/04/12 00:54:00;;;;;;;2.33;1.23;;;12.10;99.90;;;;;;7391740;19;20179;-78
2023/04/12 00:56:27;;;;;;;4.43;1.20;;;12.10;99.90;;;;;;7393085;19;20138;-79
2023/04/12 00:58:54;;;;;;;4.75;1.40;;;12.10;99.90;;;;;;7390017;19;20227;-80
2023/04/12 01:01:20;;;;;;;3.55;1.23;;;12.00;99.90;;;;;;7392080;19;20138;-80
2023/04/12 01:03:47;;;;;;;5.27;1.50;;;11.90;99.90;;;;;;7390170;19;20138;-80
2023/04/12 01:06:58;;;;;;;7.35;1.48;;;12.00;99.90;;;;;;7393057;19;20135;-78
2023/04/12 01:09:50;;;;;;;4.27;1.20;;;12.00;99.90;;;;;;7384079;19;20180;-79
2023/04/12 01:12:41;;;;;;;4.50;1.60;;;12.00;99.90;;;;;;7390465;19;20134;-80
2023/04/12 01:15:12;;;;;;;6.80;1.60;;;12.00;99.90;;;;;;7384749;19;20166;-79
2023/04/12 01:18:05;;;;;;;4.20;1.30;;;11.70;99.90;;;;;;7390312;19;20186;-80
2023/04/12 01:20:36;;;;;;;2.83;1.30;;;11.80;99.90;;;;;;7391260;19;20649;-79
2023/04/12 01:23:27;;;;;;;2.80;1.37;;;12.00;99.90;;;;;;7390005;19;20158;-79
2023/04/12 01:26:20;;;;;;;2.92;1.67;;;12.00;99.90;;;;;;7392184;19;20605;-81
2023/04/12 01:28:51;;;;;;;4.43;1.40;;;12.00;99.90;;;;;;7388370;19;20139;-80
2023/04/12 01:31:18;;;;;;;6.10;1.90;;;12.00;99.90;;;;;;7389427;19;20134;-79
2023/04/12 01:33:46;;;;;;;7.23;1.77;;;12.00;99.90;;;;;;7390813;19;20627;-80
2023/04/12 01:36:20;;;;;;;4.50;1.77;;;12.00;99.90;;;;;;7392013;19;20143;-80
2023/04/12 01:38:47;;;;;;;6.07;1.50;;;12.00;99.90;;;;;;7391451;19;20146;-80
2023/04/12 01:41:13;;;;;;;5.07;1.45;;;11.80;99.90;;;;;;7390332;19;20162;-80
2023/04/12 01:43:43;;;;;;;1.50;1.20;;;11.70;99.90;;;;;;7387933;19;20249;-81
2023/04/12 01:46:11;;;;;;;4.73;1.20;;;11.80;99.90;;;;;;7391213;19;20143;-80
2023/04/12 01:48:38;;;;;;;2.77;1.20;;;11.80;99.90;;;;;;7392349;19;20145;-81
2023/04/12 01:51:09;;;;;;;4.63;1.98;;;11.80;99.90;;;;;;7385774;19;20135;-79
2023/04/12 01:54:00;;;;;;;4.23;1.70;;;11.70;99.90;;;;;;7389639;19;20221;-80
2023/04/12 01:56:34;;;;;;;2.63;1.33;;;11.60;99.90;;;;;;7390173;19;20158;-80
2023/04/12 01:59:01;;;;;;;3.10;1.20;;;11.50;99.90;;;;;;7391356;19;20154;-79
2023/04/12 02:01:28;;;;;;;4.40;1.20;;;11.40;99.90;;;;;;7388122;19;20162;-80
2023/04/12 02:03:57;;;;;;;3.73;1.20;;;11.50;99.90;;;;;;7389165;19;20619;-79
2023/04/12 02:06:25;;;;;;;3.53;1.20;;;11.40;99.90;;;;;;7390324;19;20150;-80
2023/04/12 02:09:01;;;;;;;6.23;2.00;;;11.40;99.90;;;;;;7388075;19;20202;-80
2023/04/12 02:11:27;;;;;;;3.23;1.60;;;11.30;99.90;;;;;;7390511;19;20149;-80
2023/04/12 02:13:53;;;;;;;4.13;1.20;;;11.30;99.90;;;;;;7387553;19;21076;-80
2023/04/12 02:16:19;;;;;;;3.70;1.47;;;11.40;99.90;;;;;;7389327;19;20659;-80
2023/04/12 02:18:46;;;;;;;1.80;1.33;;;11.30;99.90;;;;;;7387615;19;20146;-80
2023/04/12 02:21:12;;;;;;;2.43;1.10;;;11.30;99.90;;;;;;7389888;19;20154;-79
2023/04/12 02:23:37;;;;;;;4.33;1.30;;;10.80;99.90;;;;;;7389682;19;20291;-80
2023/04/12 02:26:03;;;;;;;5.33;1.50;;;11.00;99.90;;;;;;7386649;19;20142;-81
2023/04/12 02:28:29;;;;;;;1.58;1.10;;;11.20;99.90;;;;;;7391447;19;20145;-80
2023/04/12 02:30:55;;;;;;;3.43;1.57;;;11.40;99.90;;;;;;7384881;19;20138;-81
2023/04/12 02:33:24;;;;;;;4.80;1.50;;;11.10;99.90;;;;;;7388991;19;20151;-80
2023/04/12 02:35:51;;;;;;;4.10;1.60;;;11.20;99.90;;;;;;7387814;19;20154;-80
2023/04/12 02:38:16;;;;;;;3.75;1.42;;;11.30;99.90;;;;;;7390721;19;20238;-81
2023/04/12 02:40:42;;;;;;;4.53;1.50;;;11.30;99.90;;;;;;7386295;19;20157;-79
2023/04/12 02:43:09;;;;;;;5.07;1.10;;;11.40;99.90;;;;;;7389665;19;20147;-80
2023/04/12 02:45:35;;;;;;;4.83;1.40;;;11.30;99.90;;;;;;7390327;19;20130;-80
2023/04/12 02:48:01;;;;;;;2.13;1.20;;;10.90;99.90;;;;;;7390728;19;20135;-82
2023/04/12 02:50:28;;;;;;;1.90;1.20;;;11.00;99.90;;;;;;7388486;19;20152;-81
2023/04/12 02:52:54;;;;;;;4.30;1.20;;;11.10;99.90;;;;;;7389370;19;20137;-80
2023/04/12 02:55:20;;;;;;;3.28;1.00;;;11.20;99.90;;;;;;7388931;19;20206;-80
2023/04/12 02:57:47;;;;;;;1.95;1.25;;;11.00;99.90;;;;;;7389955;19;20138;-82
2023/04/12 03:00:15;;;;;;;2.17;1.30;;;11.00;99.90;;;;;;7389483;19;20797;-81
2023/04/12 03:02:41;;;;;;;4.63;1.37;;;11.10;99.90;;;;;;7390105;19;20147;-81
2023/04/12 03:05:07;;;;;;;5.57;1.50;;;11.10;99.90;;;;;;7391965;19;20130;-81
2023/04/12 03:07:34;;;;;;;3.27;1.23;;;11.20;99.90;;;;;;7396112;19;20218;-79
2023/04/12 03:10:01;;;;;;;3.90;1.40;;;11.10;99.90;;;;;;7396127;19;20147;-81
2023/04/12 03:12:27;;;;;;;3.40;1.50;;;11.10;99.90;;;;;;7395025;19;20135;-81
2023/04/12 03:14:53;;;;;;;5.00;1.70;;;11.10;99.90;;;;;;7397103;19;20134;-81
2023/04/12 03:17:19;;;;;;;2.47;1.40;;;11.10;99.90;;;;;;7394668;19;20146;-79
2023/04/12 03:19:45;;;;;;;2.37;1.40;;;11.20;99.90;;;;;;7395255;19;20784;-80
2023/04/12 03:22:11;;;;;;;3.73;1.30;;;11.10;99.90;;;;;;7395180;19;20158;-80
2023/04/12 03:24:36;;;;;;;2.70;1.23;;;10.90;99.90;;;;;;7396284;19;20138;-80
2023/04/12 03:27:04;;;;;;;2.03;1.30;;;11.00;99.90;;;;;;7394336;19;20683;-80
2023/04/12 03:29:30;;;;;;;3.37;1.03;;;11.10;99.90;;;;;;7393643;19;20147;-79
2023/04/12 03:31:58;;;;;;;2.47;1.27;;;11.10;99.90;;;;;;7394464;19;20150;-79
2023/04/12 03:34:26;;;;;;;2.83;1.40;;;11.20;99.90;;;;;;7393047;19;20159;-80
2023/04/12 03:36:54;;;;;;;2.70;1.20;;;11.20;99.90;;;;;;7390266;19;20610;-79
2023/04/12 03:39:21;;;;;;;2.77;1.50;;;11.20;99.90;;;;;;7390692;19;20175;-81
2023/04/12 03:41:46;;;;;;;4.80;1.30;;;11.30;99.90;;;;;;7392772;19;20158;-80
2023/04/12 03:44:14;;;;;;;4.63;1.53;;;11.10;99.90;;;;;;7395007;19;20174;-79
2023/04/12 03:46:39;;;;;;;3.75;1.30;;;10.80;99.90;;;;;;7393803;19;20621;-80
2023/04/12 03:49:05;;;;;;;5.67;1.77;;;10.90;99.90;;;;;;7393640;19;20172;-79
2023/04/12 03:51:31;;;;;;;2.05;1.35;;;10.70;99.90;;;;;;7393721;19;20142;-79
2023/04/12 03:53:57;;;;;;;3.43;1.77;;;10.90;99.90;;;;;;7392920;19;20142;-80
2023/04/12 03:56:22;;;;;;;2.30;1.60;;;10.90;99.90;;;;;;7396540;19;20135;-79
2023/04/12 03:58:48;;;;;;;3.00;1.50;;;11.00;99.90;;;;;;7393230;19;20217;-79
2023/04/12 04:01:16;;;;;;;4.60;1.85;;;10.80;99.90;;;;;;7393056;19;20142;-80
2023/04/12 04:03:43;;;;;;;2.70;1.60;;;10.70;99.90;;;;;;7393254;19;20210;-80
2023/04/12 04:06:10;;;;;;;2.77;1.63;;;10.80;99.90;;;;;;7393160;19;20143;-80
2023/04/12 04:08:36;;;;;;;2.90;1.43;;;10.90;99.90;;;;;;7394336;19;20509;-78
2023/04/12 04:11:02;;;;;;;3.20;1.80;;;10.90;99.90;;;;;;7392305;19;20143;-79
2023/04/12 04:13:28;;;;;;;4.57;1.77;;;10.90;99.90;;;;;;7393767;19;20230;-79
2023/04/12 04:16:05;;;;;;;5.53;2.10;;;10.90;99.90;;;;;;7392823;19;20143;-80
2023/04/12 04:18:31;;;;;;;6.30;2.00;;;10.70;99.90;;;;;;7391818;19;20614;-78
2023/04/12 04:20:57;;;;;;;4.07;1.83;;;10.80;99.90;;;;;;7393077;19;20158;-80
2023/04/12 04:23:23;;;;;;;3.60;2.03;;;10.50;99.90;;;;;;7392876;19;20146;-79
2023/04/12 04:25:52;;;;;;;4.40;1.90;;;10.70;99.90;;;;;;7392160;19;20145;-78
2023/04/12 04:28:18;;;;;;;5.53;2.00;;;10.90;99.90;;;;;;7391853;19;20154;-78
2023/04/12 04:30:45;;;;;;;5.30;2.13;;;10.90;99.90;;;;;;7391450;19;20153;-79
2023/04/12 04:33:11;;;;;;;3.43;1.83;;;10.80;99.90;;;;;;7391668;19;20142;-79
2023/04/12 04:35:43;;;;;;;4.10;1.90;;;10.80;99.90;;;;;;7394447;19;20135;-79
2023/04/12 04:38:09;;;;;;;4.57;2.20;;;10.70;99.90;;;;;;7395020;19;20563;-79
2023/04/12 04:40:38;;;;;;;5.03;2.00;;;10.90;99.90;;;;;;7393243;19;20179;-78
2023/04/12 04:43:04;;;;;;;7.83;2.27;;;11.00;99.90;;;;;;7395267;19;20137;-79
2023/04/12 04:45:31;;;;;;;3.70;1.93;;;11.00;99.90;;;;;;7392652;19;20139;-79
2023/04/12 04:47:57;;;;;;;5.70;2.10;;;11.00;99.90;;;;;;7393747;19;20151;-80
2023/04/12 04:50:25;;;;;;;3.33;2.00;;;11.00;99.90;;;;;;7390232;19;20127;-79
2023/04/12 04:52:51;;;;;;;4.70;1.67;;;11.10;99.90;;;;;;7391852;19;20135;-80
2023/04/12 04:55:17;;;;;;;2.67;1.53;;;11.00;99.90;;;;;;7392035;19;20142;-80
2023/04/12 04:57:43;;;;;;;6.83;1.80;;;10.80;99.90;;;;;;7392806;19;20477;-79
2023/04/12 05:00:10;;;;;;;3.23;1.40;;;11.00;99.90;;;;;;7392472;19;20134;-80
2023/04/12 05:02:38;;;;;;;3.53;1.97;;;10.90;99.90;;;;;;7390869;19;20147;-79
2023/04/12 05:05:06;;;;;;;2.87;2.07;;;10.90;99.90;;;;;;7390292;19;20142;-79
2023/04/12 05:07:32;;;;;;;3.33;1.50;;;10.80;99.90;;;;;;7391769;19;20510;-80
2023/04/12 05:09:57;;;;;;;2.40;1.60;;;10.80;99.90;;;;;;7389816;19;20194;-80
2023/04/12 05:12:24;;;;;;;3.57;1.70;;;10.90;99.90;;;;;;7391007;19;20428;-80
2023/04/12 05:14:50;;;;;;;3.57;2.00;;;10.90;99.90;;;;;;7390659;19;20167;-80
2023/04/12 05:17:16;;;;;;;2.10;1.40;;;10.80;99.90;;;;;;7390840;19;20732;-78
2023/04/12 05:19:43;;;;;;;1.83;1.30;;;10.90;99.90;;;;;;7393663;19;20127;-79
2023/04/12 05:22:09;;;;;;;2.53;1.70;;;10.90;99.90;;;;;;7390698;19;20146;-78
2023/04/12 05:24:36;;;;;;;2.93;1.50;;;11.00;99.90;;;;;;7389710;19;20243;-80
2023/04/12 05:27:02;;;;;;;3.23;1.50;;;10.50;99.90;;;;;;7391764;19;20135;-80
2023/04/12 05:29:28;;;;;;;3.03;1.80;;;10.70;99.90;;;;;;7388858;19;20513;-79
2023/04/12 05:31:54;;;;;;;4.03;2.00;;;10.80;99.90;;;;;;7387060;19;20141;-77
2023/04/12 05:34:20;;;;;;;3.30;2.00;;;10.90;99.90;;;;;;7389744;19;20603;-77
2023/04/12 05:36:45;;;;;;;3.90;1.60;;;11.00;99.90;;;;;;7388140;19;20550;-76
2023/04/12 05:39:11;;;;;;;4.23;1.83;;;10.80;99.90;;;;;;7389350;19;20612;-77
2023/04/12 05:41:37;;;;;;;2.33;1.80;;;11.00;99.90;;;;;;7385608;19;20170;-79
2023/04/12 05:44:03;;;;;;;3.90;2.30;;;10.90;99.90;;;;;;7391218;19;20544;-78
2023/04/12 05:46:29;;;;;;;4.07;2.30;;;10.90;99.90;;;;;;7389946;19;20164;-79
2023/04/12 05:48:55;;;;;;;3.53;2.07;;;11.00;99.90;;;;;;7389616;19;20155;-78
2023/04/12 05:51:21;;;;;;;2.67;1.87;;;11.00;99.90;;;;;;7387779;19;20147;-79
2023/04/12 05:53:46;;;;;;;2.83;1.90;;;11.10;99.90;;;;;;7387687;19;20154;-78
2023/04/12 05:56:12;;;;;;;2.40;1.77;;;11.10;99.90;;;;;;7384762;19;20366;-81
2023/04/12 05:58:40;;;;;;;6.07;1.83;;;11.10;99.90;;;;;;7393333;19;20151;-81
2023/04/12 06:01:06;;;;;;;4.23;1.50;;;11.10;99.90;;;;;;7390947;19;21002;-81
2023/04/12 06:03:32;;;;;;;3.10;1.80;;;11.00;99.90;;;;;;7389634;19;20250;-81
2023/04/12 06:05:58;;;;;;;3.23;1.60;;;11.00;99.90;;;;;;7389543;19;20602;-79
2023/04/12 06:08:23;;;;;;;5.43;1.60;;;10.90;99.90;;;;;;7390352;19;20461;-80
2023/04/12 06:10:49;;;;;;;2.63;1.87;;;10.90;99.90;;;;;;7388050;19;20144;-80
2023/04/12 06:13:15;;;;;;;2.07;1.63;;;11.00;99.90;;;;;;7390345;19;20159;-81
2023/04/12 06:15:41;;;;;;;5.30;3.00;;;10.90;99.90;;;;;;7387885;19;20416;-82
2023/04/12 06:18:07;;;;;;;3.43;1.60;;;10.90;99.90;;;;;;7389089;19;20138;-80
2023/04/12 06:20:32;;;;;;;1.73;1.30;;;10.90;99.90;;;;;;7385324;19;20210;-78
2023/04/12 06:22:58;;;;;;;3.93;2.17;;;10.90;99.90;;;;;;7386418;19;20174;-79
2023/04/12 06:25:25;;;;;;;3.57;1.80;;;11.00;99.90;;;;;;7390909;19;20465;-77
2023/04/12 06:27:51;;;;;;;2.07;1.40;;;11.00;99.90;;;;;;7389294;19;20183;-79
2023/04/12 06:30:18;;;;;;;2.43;1.53;;;11.10;99.90;;;;;;7388893;19;20493;-79
2023/04/12 06:32:44;;;;;;;2.57;1.53;;;11.10;99.90;;;;;;7386891;19;20155;-80
2023/04/12 06:35:10;;;;;;;4.60;1.10;;;11.10;99.90;;;;;;7387995;19;20193;-80
2023/04/12 06:37:35;;;;;;;3.13;1.67;;;11.10;99.90;;;;;;7386995;19;20622;-80
2023/04/12 06:40:01;;;;;;;2.77;1.40;;;11.00;99.90;;;;;;7385397;19;20178;-80
2023/04/12 06:42:27;;;;;;;2.13;1.43;;;11.20;99.90;;;;;;7389102;19;20146;-80
2023/04/12 06:44:53;;;;;;;3.17;1.57;;;11.30;99.90;;;;;;7389872;19;20226;-80
2023/04/12 06:47:19;;;;;;;2.10;1.53;;;11.20;99.90;;;;;;7387400;19;20158;-80
2023/04/12 06:49:45;;;;;;;1.57;1.27;;;11.00;99.90;;;;;;7384007;19;20151;-80
2023/04/12 06:52:10;;;;;;;4.03;1.80;;;11.10;99.90;;;;;;7389896;19;20595;-80
2023/04/12 06:54:37;;;;;;;2.67;1.67;;;11.10;99.90;;;;;;7398668;19;20150;-80
2023/04/12 06:57:07;;;;;;;1.80;1.47;;;11.00;99.90;;;;;;7384183;19;20130;-82
2023/04/12 06:59:32;;;;;;;3.43;1.70;;;11.10;99.90;;;;;;7397562;19;20161;-84
2023/04/12 07:01:59;;;;;;;3.73;1.50;;;11.20;99.90;;;;;;7392944;19;20583;-82
2023/04/12 07:04:25;;;;;;;3.93;1.90;;;11.10;99.90;;;;;;7390079;19;20141;-83
2023/04/12 07:06:50;;;;;;;1.97;1.43;;;11.20;99.90;;;;;;7385698;19;20209;-78
2023/04/12 07:09:16;;;;;;;1.77;1.30;;;11.20;99.90;;;;;;7379785;19;20253;-82
2023/04/12 07:11:42;;;;;;;2.40;1.57;;;11.30;99.90;;;;;;7387955;19;20174;-81
2023/04/12 07:14:08;;;;;;;4.23;1.50;;;11.40;99.90;;;;;;7388823;19;20218;-79
2023/04/12 07:16:34;;;;;;;2.33;1.50;;;11.40;99.90;;;;;;7388821;19;20206;-83
2023/04/12 07:19:03;;;;;;;2.67;1.38;;;11.20;99.90;;;;;;7386219;19;20399;-78
2023/04/12 07:21:30;;;;;;;2.23;1.63;;;11.40;99.90;;;;;;7387780;19;20131;-79
2023/04/12 07:23:56;;;;;;;2.40;1.47;;;11.40;99.90;;;;;;7390801;19;20131;-79
2023/04/12 07:26:22;;;;;;;2.17;1.40;;;11.40;99.90;;;;;;7387908;19;20135;-80
2023/04/12 07:28:47;;;;;;;3.20;1.87;;;11.30;99.90;;;;;;7377776;19;20146;-78
2023/04/12 07:31:14;;;;;;;3.30;1.70;;;11.40;99.90;;;;;;7381111;19;20147;-81
2023/04/12 07:33:40;;;;;;;4.03;2.20;;;11.50;99.90;;;;;;7382480;19;20150;-82
2023/04/12 07:36:06;;;;;;;4.07;2.87;;;11.60;99.90;;;;;;7380684;19;20253;-80
2023/04/12 07:38:32;;;;;;;8.43;4.80;;;11.60;99.90;;;;;;7384728;19;21123;-80
2023/04/12 07:40:58;;;;;;;4.23;2.77;;;11.70;99.90;;;;;;7382610;19;20147;-80
2023/04/12 07:43:24;;;;;;;9.10;4.87;;;11.70;99.90;;;;;;7385608;19;20158;-79
2023/04/12 07:45:50;;;;;;;2.73;1.20;;;11.60;99.90;;;;;;7384116;19;20153;-79
2023/04/12 07:48:16;;;;;;;3.10;1.10;;;11.60;99.90;;;;;;7385926;19;20165;-79
2023/04/12 07:50:42;;;;;;;3.57;2.00;;;11.80;99.90;;;;;;7386474;19;20135;-80
2023/04/12 07:53:22;;;;;;;17.33;2.20;;;11.90;99.90;;;;;;7394222;19;20508;-80
2023/04/12 07:55:49;;;;;;;6.07;3.87;;;11.90;99.90;;;;;;7393368;19;20159;-80
2023/04/12 07:58:16;;;;;;;3.30;1.50;;;11.60;99.90;;;;;;7391848;19;20152;-80
2023/04/12 08:00:43;;;;;;;1.42;0.98;;;11.50;99.90;;;;;;7402376;19;20596;-80
2023/04/12 08:03:14;;;;;;;1.30;0.68;;;11.50;99.90;;;;;;7395179;19;20150;-79
2023/04/12 08:05:41;;;;;;;1.37;0.80;;;11.60;99.90;;;;;;7392369;19;20573;-79
2023/04/12 08:08:10;;;;;;;2.47;0.97;;;11.70;99.90;;;;;;7392629;19;20135;-79
2023/04/12 08:10:37;;;;;;;3.50;1.10;;;11.80;99.90;;;;;;7390424;19;20130;-78
2023/04/12 08:13:04;;;;;;;1.90;0.95;;;11.80;99.90;;;;;;7393384;19;20149;-78
2023/04/12 08:15:30;;;;;;;2.13;1.20;;;11.70;99.90;;;;;;7394233;19;20531;-79
2023/04/12 08:17:56;;;;;;;1.80;0.93;;;11.80;99.90;;;;;;7395461;19;20155;-79
2023/04/12 08:20:22;;;;;;;1.97;1.13;;;11.90;99.90;;;;;;7390919;19;20142;-79
2023/04/12 08:22:48;;;;;;;1.40;1.10;;;12.00;99.90;;;;;;7390080;19;20142;-79
2023/04/12 08:25:17;;;;;;;1.87;0.97;;;12.10;99.90;;;;;;7399875;19;20154;-79
2023/04/12 08:27:44;;;;;;;2.83;1.10;;;12.10;99.90;;;;;;7403972;19;20158;-79
2023/04/12 08:30:11;;;;;;;1.60;1.00;;;12.10;99.90;;;;;;7398284;19;20603;-80
2023/04/12 08:32:37;;;;;;;1.57;1.10;;;12.20;99.90;;;;;;7395724;19;20134;-80
2023/04/12 08:35:07;;;;;;;1.83;1.10;;;12.20;99.90;;;;;;7396404;19;20167;-80
2023/04/12 08:37:33;;;;;;;1.03;0.83;;;12.10;99.90;;;;;;7393882;19;20643;-80
2023/04/12 08:40:03;;;;;;;2.78;1.02;;;12.20;99.90;;;;;;7394628;19;20162;-78
2023/04/12 08:42:30;;;;;;;1.20;1.00;;;12.10;99.90;;;;;;7393647;19;20131;-77
2023/04/12 08:44:57;;;;;;;2.72;1.83;;;12.20;99.90;;;;;;7394729;19;20135;-79
2023/04/12 08:47:23;;;;;;;4.00;1.43;;;12.30;99.90;;;;;;7398346;19;20127;-80
2023/04/12 08:49:48;;;;;;;1.33;1.10;;;12.30;99.90;;;;;;7394500;19;20199;-79
2023/04/12 08:52:14;;;;;;;1.35;0.90;;;12.40;99.90;;;;;;7397493;19;20665;-80
2023/04/12 08:54:42;;;;;;;1.10;1.00;;;12.40;99.90;;;;;;7398698;19;20855;-81
2023/04/12 08:57:08;;;;;;;2.80;1.30;;;12.30;99.90;;;;;;7393526;19;20774;-81
2023/04/12 08:59:39;;;;;;;1.70;1.08;;;12.40;99.90;;;;;;7391220;19;20135;-81
2023/04/12 09:02:05;;;;;;;2.60;1.50;;;12.40;99.90;;;;;;7389316;19;20145;-80
2023/04/12 09:04:31;;;;;;;1.93;1.20;;;12.50;99.90;;;;;;7392561;19;20126;-81
2023/04/12 09:06:57;;;;;;;2.20;1.37;;;12.30;99.90;;;;;;7396704;19;20163;-80
2023/04/12 09:09:46;;;;;;;1.27;1.10;;;12.40;99.90;;;;;;7388660;19;21673;-81
2023/04/12 09:12:14;;;;;;;5.30;1.33;;;12.40;99.90;;;;;;7390065;19;20131;-80
2023/04/12 09:14:43;;;;;;;1.00;0.90;;;12.40;99.90;;;;;;7393063;19;20135;-81
2023/04/12 09:17:27;;;;;;;1.30;1.20;;;12.40;99.90;;;;;;7391481;19;20141;-81
2023/04/12 09:19:56;;;;;;;2.28;1.70;;;12.40;99.90;;;;;;7391140;19;20202;-81
2023/04/12 09:22:35;;;;;;;1.70;1.20;;;12.40;99.90;;;;;;7393250;19;20168;-80
2023/04/12 09:25:02;;;;;;;1.40;1.17;;;12.50;99.90;;;;;;7393890;19;20153;-81
2023/04/12 09:27:28;;;;;;;3.78;1.70;;;12.40;99.90;;;;;;7393498;19;20146;-80
2023/04/12 09:30:08;;;;;;;3.03;1.00;;;12.40;99.90;;;;;;7393502;19;20556;-82
2023/04/12 09:32:34;;;;;;;2.40;1.10;;;12.40;99.90;;;;;;7393106;19;20145;-80
2023/04/12 09:35:01;;;;;;;1.90;1.07;;;12.50;99.90;;;;;;7391865;19;20154;-80
2023/04/12 09:37:27;;;;;;;2.97;1.60;;;12.60;99.90;;;;;;7390213;19;20624;-79
2023/04/12 09:40:07;;;;;;;3.43;1.70;;;12.80;99.90;;;;;;7393654;19;20602;-80
2023/04/12 09:42:34;;;;;;;2.13;1.30;;;12.90;99.90;;;;;;7392666;19;20134;-79
2023/04/12 09:45:23;;;;;;;2.42;1.38;;;12.70;99.90;;;;;;7395143;19;20130;-79
2023/04/12 09:47:49;;;;;;;2.65;1.20;;;12.60;99.90;;;;;;7402310;19;20130;-79
2023/04/12 09:50:21;;;;;;;6.53;3.28;;;12.80;99.90;;;;;;7397773;19;20167;-82
2023/04/12 09:52:47;;;;;;;2.17;1.20;;;12.80;99.90;;;;;;7393944;19;20218;-81
2023/04/12 09:55:14;;;;;;;2.25;1.60;;;12.80;99.90;;;;;;7397168;19;20151;-81
2023/04/12 09:57:42;;;;;;;1.67;1.38;;;12.90;99.90;;;;;;7396976;19;20134;-79
2023/04/12 10:00:16;;;;;;;2.75;1.17;;;13.00;99.90;;;;;;7392692;19;20229;-81
2023/04/12 10:02:46;;;;;;;3.03;1.30;;;13.00;99.90;;;;;;7392867;19;20160;-82
2023/04/12 10:05:15;;;;;;;2.05;1.30;;;13.10;99.90;;;;;;7397378;19;20130;-80
2023/04/12 10:07:42;;;;;;;2.50;1.45;;;13.20;99.90;;;;;;7394963;19;20146;-79
2023/04/12 10:10:11;;;;;;;2.25;1.27;;;13.20;99.90;;;;;;7393999;19;20135;-78
2023/04/12 10:12:38;;;;;;;1.73;1.10;;;13.30;99.90;;;;;;7398298;19;20143;-79
2023/04/12 10:15:11;;;;;;;2.72;1.63;;;13.30;99.90;;;;;;7404994;19;20143;-78
2023/04/12 10:17:44;;;;;;;3.05;1.45;;;13.50;99.90;;;;;;7399432;19;20138;-82
2023/04/12 10:20:11;;;;;;;9.30;4.00;;;13.70;99.90;;;;;;7395339;19;20130;-79
2023/04/12 10:22:41;;;;;;;19.75;11.95;;;13.80;99.90;;;;;;7394940;19;20142;-81
2023/04/12 10:25:20;;;;;;;5.40;2.40;;;13.90;99.90;;;;;;7395382;19;20137;-80
2023/04/12 10:27:47;;;;;;;1.50;1.00;;;14.00;99.90;;;;;;7392815;19;20140;-79
2023/04/12 10:30:30;;;;;;;1.42;1.20;;;14.10;99.90;;;;;;7394884;19;20438;-80
2023/04/12 10:33:02;;;;;;;2.53;1.60;;;14.10;99.90;;;;;;7391510;19;20134;-80
2023/04/12 10:35:48;;;;;;;4.53;3.08;;;13.90;99.90;;;;;;7394557;19;20134;-80
2023/04/12 10:38:15;;;;;;;7.40;2.75;;;13.80;99.90;;;;;;7390929;19;20162;-83
2023/04/12 10:41:06;;;;;;;3.50;1.50;;;14.10;99.90;;;;;;7389657;19;20183;-85
2023/04/12 10:43:32;;;;;;;1.75;1.10;;;14.30;99.90;;;;;;7390097;19;20171;-82
2023/04/12 10:46:03;;;;;;;4.65;1.70;;;14.50;99.90;;;;;;7390953;19;20139;-79
2023/04/12 10:48:35;;;;;;;3.13;1.30;;;14.60;99.90;;;;;;7391879;19;20131;-82
2023/04/12 10:51:24;;;;;;;2.25;1.00;;;14.50;99.90;;;;;;7387416;19;20177;-80
2023/04/12 10:54:15;;;;;;;3.67;1.08;;;14.40;99.90;;;;;;7389678;19;20134;-83
2023/04/12 10:56:43;;;;;;;2.75;1.90;;;14.40;99.90;;;;;;7395067;19;20501;-82
2023/04/12 10:59:10;;;;;;;2.53;1.38;;;14.40;99.90;;;;;;7392169;19;20133;-82
2023/04/12 11:01:37;;;;;;;3.08;1.00;;;14.30;99.90;;;;;;7390956;19;20130;-82
2023/04/12 11:04:13;;;;;;;1.60;0.90;;;14.30;99.90;;;;;;7388420;19;20171;-81
2023/04/12 11:07:05;;;;;;;1.92;1.15;;;14.60;99.90;;;;;;7385883;19;20134;-82
2023/04/12 11:09:40;;;;;;;1.33;1.00;;;14.40;99.90;;;;;;7387468;19;20154;-82
2023/04/12 11:12:06;;;;;;;1.80;1.10;;;14.40;99.90;;;;;;7389692;19;20139;-81
2023/04/12 11:14:50;;;;;;;2.88;1.50;;;14.60;99.90;;;;;;7390910;19;20146;-81
2023/04/12 11:17:15;;;;;;;1.40;1.00;;;14.80;99.90;;;;;;7389026;19;20135;-81
2023/04/12 11:19:48;;;;;;;2.58;1.00;;;14.70;99.90;;;;;;7391261;19;20137;-81
2023/04/12 11:22:16;;;;;;;3.05;1.25;;;14.80;99.90;;;;;;7391366;19;20131;-80
2023/04/12 11:24:46;;;;;;;1.55;0.90;;;14.90;99.90;;;;;;7391139;19;20548;-82
2023/04/12 11:27:12;;;;;;;1.30;0.80;;;14.80;99.90;;;;;;7395159;19;20668;-82
2023/04/12 11:29:39;;;;;;;1.40;0.90;;;14.80;99.90;;;;;;7397988;19;20686;-83
2023/04/12 11:32:08;;;;;;;1.90;1.00;;;14.70;99.90;;;;;;7395041;19;20552;-82
2023/04/12 11:34:35;;;;;;;1.00;0.70;;;14.70;99.90;;;;;;7397814;19;20131;-80
2023/04/12 11:37:05;;;;;;;3.70;1.45;;;14.70;99.90;;;;;;7395627;19;20169;-79
2023/04/12 11:39:31;;;;;;;2.25;1.40;;;14.50;99.90;;;;;;7396130;19;20134;-82
2023/04/12 11:41:57;;;;;;;1.55;0.70;;;14.60;99.90;;;;;;7395926;19;20224;-81
2023/04/12 11:44:23;;;;;;;1.60;0.70;;;14.70;99.90;;;;;;7397147;19;20739;-80
2023/04/12 11:46:49;;;;;;;2.00;0.85;;;14.60;99.90;;;;;;7396922;19;20151;-80
2023/04/12 11:49:16;;;;;;;1.23;0.68;;;14.70;99.90;;;;;;7399266;19;20670;-81
2023/04/12 11:51:43;;;;;;;1.73;0.70;;;14.70;99.90;;;;;;7393499;19;20494;-82
2023/04/12 11:54:14;;;;;;;4.55;0.90;;;14.70;99.90;;;;;;7394735;19;20389;-81
2023/04/12 11:56:41;;;;;;;2.45;0.60;;;14.90;99.90;;;;;;7397234;19;20206;-81
2023/04/12 11:59:07;;;;;;;1.27;0.80;;;15.00;99.90;;;;;;7396694;19;20139;-80
2023/04/12 12:01:34;;;;;;;3.85;1.40;;;15.00;99.90;;;;;;7405288;19;20137;-82
2023/04/12 12:04:01;;;;;;;0.90;0.80;;;15.10;99.90;;;;;;7402812;19;20143;-82
2023/04/12 12:06:26;;;;;;;1.38;0.85;;;15.10;99.90;;;;;;7402425;19;20143;-80
2023/04/12 12:08:54;;;;;;;2.90;2.00;;;14.90;99.90;;;;;;7396367;19;20218;-81
2023/04/12 12:11:20;;;;;;;8.82;4.20;;;15.00;99.90;;;;;;7400958;19;20146;-80
2023/04/12 12:13:48;;;;;;;1.52;0.90;;;15.20;99.90;;;;;;7402194;19;20142;-80
2023/04/12 12:16:16;;;;;;;0.68;0.68;;;15.10;99.90;;;;;;7403815;19;20145;-82
2023/04/12 12:18:42;;;;;;;1.65;0.80;;;15.10;99.90;;;;;;7398220;19;20209;-82
2023/04/12 12:21:09;;;;;;;2.22;1.05;;;15.20;99.90;;;;;;7397270;19;20956;-82
2023/04/12 12:23:35;;;;;;;1.23;0.60;;;15.20;99.90;;;;;;7393675;19;20206;-81
2023/04/12 12:26:02;;;;;;;2.42;0.88;;;15.40;99.90;;;;;;7392705;19;20142;-78
2023/04/12 12:28:29;;;;;;;3.00;0.80;;;15.60;99.90;;;;;;7393023;19;20155;-82
2023/04/12 12:30:56;;;;;;;2.05;0.98;;;15.70;99.90;;;;;;7393865;19;20180;-80
2023/04/12 12:33:23;;;;;;;5.47;1.70;;;15.60;99.90;;;;;;7396254;19;20251;-81
2023/04/12 12:35:56;;;;;;;0.85;0.70;;;15.70;99.90;;;;;;7393922;19;20486;-81
2023/04/12 12:38:22;;;;;;;2.83;0.80;;;15.40;99.90;;;;;;7392415;19;20226;-81
2023/04/12 12:40:49;;;;;;;1.48;0.70;;;15.50;99.90;;;;;;7391940;19;20139;-81
2023/04/12 12:43:24;;;;;;;2.58;0.60;;;15.50;99.90;;;;;;7392834;19;20139;-81
2023/04/12 12:45:50;;;;;;;2.97;0.70;;;15.80;99.90;;;;;;7396823;19;20122;-83
2023/04/12 12:48:18;;;;;;;0.90;0.70;;;16.00;99.90;;;;;;7394914;19;20631;-83
2023/04/12 12:50:43;;;;;;;2.30;0.70;;;16.30;99.90;;;;;;7391390;19;20172;-80
2023/04/12 12:53:10;;;;;;;1.52;0.65;;;16.40;99.90;;;;;;7392850;19;20138;-80